Cape Peony — 3FDX6 — position and weather

sailwx.info

Track history (hours):
 
Tides and Currents Weather Stations Pressure Air Temp Water Temp Dewpoint Dewpoint Depression Visibility Wind Speed Wind Dir Waves Ship Positions

Cape Peony

Last reported at 2016-Jan-17 08:28 UTC. Time now 2016-Feb-08 10:12 UTC.
Position N 01°17' E 104°19'.
Warning: this ship's position is 22 days out of date.

Length 292 m; draft 16.7 m.

Type: Cargo ship. MMSI: 373590000.

Date/timePositionNaut miles runAvg speedWind from/ knotsBaromVisibWave heightAir tempDewpointWater temp
2016-Jan-17 08:28N 01°17' E 104°19'8 8.5
2016-Jan-17 07:33N 01°16' E 104°11'8 8.2
2016-Jan-17 06:33N 01°16' E 104°03'2 2.0
2016-Jan-17 05:29N 01°17' E 104°01'0 0.0
2016-Jan-17 04:29N 01°17' E 104°01'0 0.0
2016-Jan-17 03:32N 01°17' E 104°01'0 0.0
2016-Jan-17 02:29N 01°17' E 104°01'0 0.0
2016-Jan-17 01:29N 01°17' E 104°01'0 0.0
2016-Jan-16 23:20N 01°17' E 104°01'0 0.0
2016-Jan-16 22:29N 01°17' E 104°01'0 0.0
2016-Jan-16 21:23N 01°17' E 104°01'0 0.0
2016-Jan-16 20:23N 01°17' E 104°01'0 0.1
2016-Jan-16 19:26N 01°17' E 104°01'0 0.0
2016-Jan-16 17:32N 01°17' E 104°01'0 0.0
2016-Jan-16 16:20N 01°17' E 104°01'0 0.1
2016-Jan-16 15:29N 01°17' E 104°01'0 0.1
2016-Jan-16 13:05N 01°17' E 104°01'0 0.0
2016-Jan-16 12:17N 01°17' E 104°01'0 0.1
2016-Jan-16 10:32N 01°17' E 104°01'0 0.2
2016-Jan-16 09:33N 01°17' E 104°01'0 0.1
2016-Jan-16 08:33N 01°17' E 104°01'0 0.1
2016-Jan-16 07:33N 01°17' E 104°01'0 0.1
2016-Jan-16 06:33N 01°17' E 104°01'4 3.7
2016-Jan-16 05:33N 01°15' E 103°57'4 3.9
2016-Jan-16 04:33N 01°13' E 103°54'7 6.7
2016-Jan-16 03:33N 01°10' E 103°48'9 8.4
2016-Jan-16 02:32N 01°05' E 103°42'  
Track history (hours):
 
Tides and Currents Weather Stations Pressure Air Temp Water Temp Dewpoint Dewpoint Depression Visibility Wind Speed Wind Dir Waves Ship Positions

Cape Peony

Last reported at 2016-Jan-17 08:28 UTC. Time now 2016-Feb-08 10:12 UTC.
Position N 01°17' E 104°19'.
Warning: this ship's position is 22 days out of date.

Length 292 m; draft 16.7 m.

Type: Cargo ship. MMSI: 373590000.

Date/timePositionNaut miles runAvg speedWind from/ knotsBaromVisibWave heightAir tempDewpointWater temp
2016-Jan-17 08:28N 01°17' E 104°19'8 8.5
2016-Jan-17 07:33N 01°16' E 104°11'8 8.2
2016-Jan-17 06:33N 01°16' E 104°03'2 2.0
2016-Jan-17 05:29N 01°17' E 104°01'0 0.0
2016-Jan-17 04:29N 01°17' E 104°01'0 0.0
2016-Jan-17 03:32N 01°17' E 104°01'0 0.0
2016-Jan-17 02:29N 01°17' E 104°01'0 0.0
2016-Jan-17 01:29N 01°17' E 104°01'0 0.0
2016-Jan-16 23:20N 01°17' E 104°01'0 0.0
2016-Jan-16 22:29N 01°17' E 104°01'0 0.0
2016-Jan-16 21:23N 01°17' E 104°01'0 0.0
2016-Jan-16 20:23N 01°17' E 104°01'0 0.1
2016-Jan-16 19:26N 01°17' E 104°01'0 0.0
2016-Jan-16 17:32N 01°17' E 104°01'0 0.0
2016-Jan-16 16:20N 01°17' E 104°01'0 0.1
2016-Jan-16 15:29N 01°17' E 104°01'0 0.1
2016-Jan-16 13:05N 01°17' E 104°01'0 0.0
2016-Jan-16 12:17N 01°17' E 104°01'0 0.1
2016-Jan-16 10:32N 01°17' E 104°01'0 0.2
2016-Jan-16 09:33N 01°17' E 104°01'0 0.1
2016-Jan-16 08:33N 01°17' E 104°01'0 0.1
2016-Jan-16 07:33N 01°17' E 104°01'0 0.1
2016-Jan-16 06:33N 01°17' E 104°01'4 3.7
2016-Jan-16 05:33N 01°15' E 103°57'4 3.9
2016-Jan-16 04:33N 01°13' E 103°54'7 6.7
2016-Jan-16 03:33N 01°10' E 103°48'9 8.4
2016-Jan-16 02:32N 01°05' E 103°42'  

Dump ship's entire track history